Time;durP1;ratioP1;P1;durP2;ratioP2;P2;SDS_P1;SDS_P2;PMS_P1;PMS_P2;Temp;Humidity;BMP_temperature;BMP_pressure;BME280_temperature;BME280_humidity;BME280_pressure;Samples;Min_cycle;Max_cycle;Signal;HPM_P1;HPM_P2
2023/10/08 00:01:50;;;;;;;10.88;6.50;;;;;;;12.76;54.47;99911.06;6304900;22;20006;-86
2023/10/08 00:04:18;;;;;;;14.82;4.63;;;;;;;12.90;54.35;99905.47;6304716;22;20010;-85
2023/10/08 00:06:45;;;;;;;14.52;5.22;;;;;;;13.11;54.27;99948.28;6304422;22;20003;-85
2023/10/08 00:09:11;;;;;;;13.93;4.22;;;;;;;12.79;54.85;99912.75;6304928;22;20003;-85
2023/10/08 00:11:37;;;;;;;;;;;;;;;13.22;55.86;99986.00;6305142;22;20010;-83
2023/10/08 00:14:07;;;;;;;12.43;4.18;;;;;;;12.88;55.80;99952.25;6305459;22;19906;-83
2023/10/08 00:16:33;;;;;;;11.23;5.53;;;;;;;12.70;56.33;99913.81;6304691;22;20062;-83
2023/10/08 00:19:03;;;;;;;;;;;;;;;13.31;56.12;99975.19;6305149;22;20007;-83
2023/10/08 00:21:31;;;;;;;12.57;5.78;;;;;;;12.99;56.14;99914.97;6304341;22;20253;-83
2023/10/08 00:24:00;;;;;;;12.63;5.60;;;;;;;12.92;56.02;99881.59;6305137;22;20003;-84
2023/10/08 00:26:33;;;;;;;12.00;4.00;;;;;;;13.04;56.44;99903.38;6304370;22;20084;-83
2023/10/08 00:29:00;;;;;;;14.23;5.85;;;;;;;12.90;56.30;99877.22;6304387;22;20420;-83
2023/10/08 00:31:40;;;;;;;10.75;5.68;;;;;;;13.06;55.64;99892.75;6304294;22;20050;-84
2023/10/08 00:34:12;;;;;;;9.80;4.75;;;;;;;12.94;55.91;99895.69;6305051;22;20031;-83
2023/10/08 00:36:39;;;;;;;13.55;4.78;;;;;;;12.88;55.46;99899.31;6302938;22;20346;-83
2023/10/08 00:39:10;;;;;;;24.10;6.53;;;;;;;12.79;55.18;99894.22;6304923;22;20014;-84
2023/10/08 00:41:38;;;;;;;6.40;3.88;;;;;;;12.39;55.71;99873.84;6277015;22;20091;-84
2023/10/08 00:44:07;;;;;;;14.18;4.93;;;;;;;12.84;54.87;99895.00;6304938;22;20004;-85
2023/10/08 00:46:35;;;;;;;10.40;4.35;;;;;;;12.82;54.83;99918.88;6305086;22;20003;-85
2023/10/08 00:51:59;;;;;;;13.10;4.68;;;;;;;12.66;53.70;99885.66;6303939;22;20331;-84
2023/10/08 00:54:28;;;;;;;12.63;5.15;;;;;;;12.64;53.89;99890.13;6304755;22;20490;-84
2023/10/08 00:56:57;;;;;;;12.40;4.97;;;;;;;12.67;53.84;99882.13;6303878;22;20510;-84
2023/10/08 00:59:33;;;;;;;11.65;4.95;;;;;;;12.53;55.32;99893.84;6304908;22;20354;-86
2023/10/08 01:02:04;;;;;;;10.65;4.63;;;;;;;12.33;55.83;99869.56;6303795;22;20098;-85
2023/10/08 01:04:33;;;;;;;5.95;3.55;;;;;;;12.47;55.83;99903.69;6305059;22;20003;-85
2023/10/08 01:07:01;;;;;;;13.73;5.93;;;;;;;12.42;55.88;99887.91;6303661;22;20003;-85
2023/10/08 01:09:37;;;;;;;15.13;5.47;;;;;;;12.20;56.66;99854.81;6305375;22;20115;-85
2023/10/08 01:12:12;;;;;;;;;;;;;;;12.87;56.41;99945.25;6329505;22;20007;-84
2023/10/08 01:14:42;;;;;;;6.95;3.83;;;;;;;12.23;56.48;99847.69;6304643;22;19906;-84
2023/10/08 01:17:15;;;;;;;12.02;5.22;;;;;;;12.31;56.27;99843.16;6303974;22;20094;-84
2023/10/08 01:19:45;;;;;;;13.65;5.25;;;;;;;12.60;55.32;99852.25;6304729;22;20085;-84
2023/10/08 01:22:21;;;;;;;11.95;4.70;;;;;;;12.92;55.15;99869.22;6304338;22;20448;-84
2023/10/08 01:24:48;;;;;;;8.32;4.30;;;;;;;12.94;54.96;99856.81;6304851;22;20337;-85
2023/10/08 01:27:24;;;;;;;12.20;4.47;;;;;;;13.36;54.41;99906.25;6304090;22;20003;-84
2023/10/08 01:29:51;;;;;;;8.73;4.18;;;;;;;13.67;54.29;99932.03;6305225;22;20003;-83
2023/10/08 01:32:22;;;;;;;13.20;3.97;;;;;;;13.53;53.94;99877.59;6304610;22;19999;-84
2023/10/08 01:34:48;;;;;;;13.80;3.38;;;;;;;14.01;53.04;99894.97;6304851;22;20008;-84
2023/10/08 01:37:18;;;;;;;11.00;3.80;;;;;;;14.02;52.23;99887.84;6304119;22;20027;-83
2023/10/08 01:39:45;;;;;;;13.50;4.07;;;;;;;14.66;51.86;99925.09;6304331;22;20006;-83
2023/10/08 01:42:18;;;;;;;7.90;3.65;;;;;;;14.51;51.06;99895.34;6304227;22;20003;-84
2023/10/08 01:44:48;;;;;;;12.18;4.65;;;;;;;14.61;50.90;99845.56;6304430;22;20004;-84
2023/10/08 01:47:17;;;;;;;11.65;4.90;;;;;;;14.73;50.79;99862.91;6304399;22;20010;-84
2023/10/08 01:49:45;;;;;;;10.32;4.22;;;;;;;14.74;50.28;99859.34;6303434;22;20046;-85
2023/10/08 01:52:21;;;;;;;11.20;3.50;;;;;;;14.90;50.17;99853.59;6304250;22;20025;-84
2023/10/08 01:54:48;;;;;;;12.25;4.57;;;;;;;14.91;49.86;99879.25;6304392;22;20035;-83
2023/10/08 01:57:14;;;;;;;7.20;3.53;;;;;;;15.14;49.92;99890.03;6304095;22;20007;-84
2023/10/08 01:59:40;;;;;;;10.30;5.15;;;;;;;15.19;49.70;99864.19;6304308;22;20065;-84
2023/10/08 02:02:06;;;;;;;13.65;5.20;;;;;;;14.72;49.56;99831.09;6304071;22;20461;-84
2023/10/08 02:04:35;;;;;;;14.88;4.20;;;;;;;14.61;49.82;99834.06;6277232;22;20345;-84
2023/10/08 02:07:07;;;;;;;14.40;4.63;;;;;;;14.50;50.26;99832.59;6303742;22;20054;-84
2023/10/08 02:09:35;;;;;;;15.70;4.75;;;;;;;14.98;50.69;99934.78;6304512;22;20006;-84
2023/10/08 02:12:01;;;;;;;9.88;4.90;;;;;;;14.14;50.77;99826.53;6303794;22;20000;-83
2023/10/08 02:14:30;;;;;;;10.27;3.75;;;;;;;13.77;51.22;99828.38;6276804;22;20007;-87
2023/10/08 02:16:56;;;;;;;10.20;4.25;;;;;;;13.65;52.61;99823.38;6304215;22;20003;-85
2023/10/08 02:19:32;;;;;;;13.93;5.30;;;;;;;14.07;52.51;99862.97;6304198;22;20006;-85
2023/10/08 02:21:58;;;;;;;7.70;3.33;;;;;;;13.89;52.13;99807.75;6303653;22;20450;-85
2023/10/08 02:24:25;;;;;;;8.63;3.85;;;;;;;13.74;51.79;99806.38;6303977;22;20013;-84
2023/10/08 02:26:55;;;;;;;8.60;3.72;;;;;;;14.37;51.52;99859.53;6303492;22;20007;-85
2023/10/08 02:29:30;;;;;;;8.20;3.97;;;;;;;14.01;51.20;99804.78;6304657;22;20003;-83
2023/10/08 02:31:56;;;;;;;7.05;3.80;;;;;;;14.06;51.60;99815.25;6303468;22;20030;-83
2023/10/08 02:34:22;;;;;;;15.25;3.75;;;;;;;14.22;51.42;99836.91;6304646;22;19999;-84
2023/10/08 02:36:48;;;;;;;7.95;3.22;;;;;;;14.31;51.30;99828.72;6302496;22;20374;-85
2023/10/08 02:39:17;;;;;;;9.25;3.88;;;;;;;14.22;51.36;99828.97;6303632;22;20003;-85
2023/10/08 02:41:46;;;;;;;9.82;3.95;;;;;;;14.41;50.54;99816.94;6303026;22;20003;-85
2023/10/08 02:44:13;;;;;;;8.98;3.92;;;;;;;14.41;50.70;99798.34;6304176;22;20045;-85
2023/10/08 02:46:51;;;;;;;10.60;3.72;;;;;;;14.40;50.45;99809.88;6304963;22;20030;-83
2023/10/08 02:49:22;;;;;;;9.95;3.28;;;;;;;14.50;50.70;99834.34;6304923;22;20011;-84
2023/10/08 02:51:50;;;;;;;9.32;3.83;;;;;;;14.99;50.29;99912.59;6304119;22;20003;-83
2023/10/08 02:54:18;;;;;;;8.15;4.05;;;;;;;14.38;50.67;99835.59;6304298;22;20011;-84
2023/10/08 02:56:51;;;;;;;12.05;4.28;;;;;;;14.46;51.23;99849.50;6304449;22;20354;-84
2023/10/08 02:59:23;;;;;;;5.45;3.33;;;;;;;14.17;51.06;99823.78;6304236;22;20009;-82
2023/10/08 03:01:55;;;;;;;6.20;3.60;;;;;;;14.28;51.38;99850.03;6306378;22;20084;-82
2023/10/08 03:04:22;;;;;;;7.68;3.28;;;;;;;14.24;51.44;99856.31;6306237;22;20003;-82
2023/10/08 03:06:52;;;;;;;7.90;3.30;;;;;;;13.83;51.98;99805.28;6306374;22;20034;-82
2023/10/08 03:09:23;;;;;;;7.38;3.35;;;;;;;13.71;52.00;99809.09;6305883;22;20057;-82
2023/10/08 03:11:52;;;;;;;8.05;3.72;;;;;;;14.11;51.46;99832.78;6306042;22;20006;-82
2023/10/08 03:14:22;;;;;;;6.35;3.70;;;;;;;13.99;51.55;99817.19;6305449;22;20000;-85
2023/10/08 03:16:49;;;;;;;10.32;3.92;;;;;;;14.09;51.04;99826.66;6304275;22;20031;-84
2023/10/08 03:19:14;;;;;;;8.23;4.20;;;;;;;14.06;51.57;99831.19;6305678;22;20011;-84
2023/10/08 03:24:12;;;;;;;;;;;;;;;14.36;51.08;99885.16;6306308;22;20006;-84
2023/10/08 03:26:39;;;;;;;14.25;3.72;;;;;;;13.83;50.60;99830.00;6305921;22;19927;-84
2023/10/08 03:29:08;;;;;;;5.43;3.45;;;;;;;13.61;50.64;99817.28;6305402;22;20417;-83
2023/10/08 03:34:34;;;;;;;6.45;3.70;;;;;;;13.15;52.24;99799.00;6210825;23;20015;-84
2023/10/08 03:37:05;;;;;;;12.95;3.92;;;;;;;13.33;52.33;99824.16;6210388;23;20013;-84
2023/10/08 03:42:40;;;;;;;10.93;4.53;;;;;;;13.33;52.70;99813.56;6150545;23;20006;-84
2023/10/08 03:45:16;;;;;;;6.45;3.53;;;;;;;13.09;52.70;99789.41;6151039;23;20010;-85
2023/10/08 03:47:46;;;;;;;8.30;3.28;;;;;;;13.13;53.43;99804.31;6150723;23;20009;-87
2023/10/08 03:50:16;;;;;;;7.25;3.60;;;;;;;13.26;52.60;99805.75;6151351;23;20025;-85
2023/10/08 03:52:43;;;;;;;9.15;4.15;;;;;;;12.91;53.40;99788.03;6150592;23;20069;-85
2023/10/08 03:57:43;;;;;;;8.38;3.95;;;;;;;12.58;52.35;99795.00;6150544;23;20430;-86
2023/10/08 04:00:17;;;;;;;14.05;2.83;;;;;;;12.35;53.04;99760.16;6150937;23;20020;-85
2023/10/08 04:03:00;;;;;;;7.78;4.00;;;;;;;12.56;53.41;99802.06;6151382;23;20009;-86
2023/10/08 04:05:33;;;;;;;11.70;4.60;;;;;;;12.48;53.98;99789.00;6151099;23;20014;-86
2023/10/08 04:13:14;;;;;;;6.47;3.35;;;;;;;12.25;54.93;99787.72;6150389;23;19916;-83
2023/10/08 04:15:43;;;;;;;9.35;3.70;;;;;;;12.35;54.82;99793.69;6150965;23;20009;-82
2023/10/08 04:18:10;;;;;;;11.43;4.90;;;;;;;12.46;54.81;99801.41;6216376;22;20008;-83
2023/10/08 04:20:38;;;;;;;10.32;4.32;;;;;;;12.35;55.24;99778.69;6274040;22;20098;-85
2023/10/08 04:23:13;;;;;;;7.07;3.58;;;;;;;12.33;54.78;99742.59;6274291;22;19999;-82
2023/10/08 04:25:39;;;;;;;10.82;4.00;;;;;;;12.34;55.30;99791.94;6273596;22;20008;-83
2023/10/08 04:28:06;;;;;;;7.63;3.08;;;;;;;12.30;55.07;99788.50;6274435;22;20090;-83
2023/10/08 04:30:36;;;;;;;9.82;4.78;;;;;;;12.24;55.20;99793.91;6273977;22;20008;-83
2023/10/08 04:33:06;;;;;;;13.20;5.45;;;;;;;12.28;55.00;99777.09;6274226;22;20360;-84
2023/10/08 04:35:48;;;;;;;14.25;4.55;;;;;;;12.62;54.96;99812.53;6274258;22;20086;-84
2023/10/08 04:38:21;;;;;;;11.25;3.70;;;;;;;12.42;55.06;99803.25;6274133;22;20003;-85
2023/10/08 04:40:48;;;;;;;8.68;3.90;;;;;;;12.34;55.40;99779.59;6273640;22;20427;-85
2023/10/08 04:43:25;;;;;;;7.07;3.97;;;;;;;12.57;55.33;99825.00;6273963;22;20078;-84
2023/10/08 04:45:58;;;;;;;13.90;4.57;;;;;;;12.51;54.71;99810.09;6273887;22;20466;-84
2023/10/08 04:48:32;;;;;;;17.67;4.80;;;;;;;12.35;54.74;99794.53;6274433;22;20098;-84
2023/10/08 04:50:58;;;;;;;10.40;4.95;;;;;;;12.36;54.76;99816.59;6273531;22;20000;-84
2023/10/08 04:53:31;;;;;;;;;;;;;;;12.64;55.15;99864.53;6274060;22;20007;-84
2023/10/08 04:55:56;;;;;;;6.13;3.60;;;;;;;12.09;55.06;99749.25;6273749;22;20349;-84
2023/10/08 04:58:32;;;;;;;;;;;;;;;12.89;54.81;99861.34;6273951;22;20008;-84
2023/10/08 05:01:00;;;;;;;12.57;4.28;;;;;;;12.11;55.36;99766.84;6273579;22;19911;-85
2023/10/08 05:03:32;;;;;;;15.07;4.45;;;;;;;12.18;55.74;99786.97;6272908;22;20000;-85
2023/10/08 05:06:21;;;;;;;11.35;5.05;;;;;;;12.25;55.49;99784.19;6273082;22;20007;-85
2023/10/08 05:08:58;;;;;;;12.20;4.32;;;;;;;12.52;54.80;99786.25;6271450;22;20086;-83
2023/10/08 05:25:34;;;;;;;3.42;1.58;;;;;;;16.54;39.08;99801.94;6237787;23;20000;-81
2023/10/08 05:27:56;;;;;;;5.65;3.10;;;;;;;17.23;37.19;99794.88;6238515;23;20000;-81
2023/10/08 05:30:31;;;;;;;3.78;1.73;;;;;;;17.79;35.67;99839.63;6238852;23;20036;-85
2023/10/08 05:54:36;;;;;;;3.58;1.73;;;;;;;20.49;29.19;99815.22;6303644;22;20038;-84
2023/10/08 05:57:14;;;;;;;3.55;1.52;;;;;;;20.99;30.08;99827.69;6303622;22;19999;-84
2023/10/08 06:07:56;;;;;;;3.78;2.25;;;;;;;21.70;28.47;99826.31;6302920;22;20449;-84
2023/10/08 06:13:04;;;;;;;4.85;1.55;;;;;;;21.52;27.99;99781.75;6303177;22;20338;-84
2023/10/08 06:18:25;;;;;;;5.25;1.95;;;;;;;22.10;28.29;99794.38;6302898;22;20066;-88
2023/10/08 06:20:54;;;;;;;5.40;1.67;;;;;;;22.17;28.43;99802.94;6302762;22;20026;-85
2023/10/08 06:23:22;;;;;;;4.43;1.55;;;;;;;22.11;27.50;99803.31;6302839;22;20287;-88
2023/10/08 06:28:39;;;;;;;7.45;2.33;;;;;;;22.29;27.83;99767.25;6304183;22;20337;-86
2023/10/08 06:31:11;;;;;;;6.82;1.58;;;;;;;22.54;26.95;99784.53;6302384;22;20453;-85
2023/10/08 06:33:38;;;;;;;3.42;1.85;;;;;;;22.95;26.62;99798.97;6303439;22;20007;-89
2023/10/08 06:38:38;;;;;;;9.85;1.58;;;;;;;22.65;26.06;99773.97;6303420;22;20109;-87
2023/10/08 06:41:15;;;;;;;3.65;2.03;;;;;;;23.02;26.25;99793.09;6304511;22;20011;-86
2023/10/08 06:43:49;;;;;;;3.80;1.50;;;;;;;23.22;26.47;99791.81;6303666;22;20086;-85
2023/10/08 06:46:18;;;;;;;2.50;1.45;;;;;;;23.33;25.79;99830.63;6301696;22;20418;-89
2023/10/08 06:48:46;;;;;;;3.40;1.63;;;;;;;23.01;26.30;99767.16;6301913;22;20019;-87
2023/10/08 06:51:13;;;;;;;3.95;1.90;;;;;;;23.37;25.99;99824.94;6303588;22;20448;-89
2023/10/08 06:53:43;;;;;;;3.45;1.65;;;;;;;23.16;25.75;99791.38;6302856;22;20007;-94
2023/10/08 06:56:12;;;;;;;4.75;1.77;;;;;;;23.03;25.82;99767.03;6303079;22;20030;-86
2023/10/08 06:58:39;;;;;;;10.30;1.90;;;;;;;23.33;26.13;99782.19;6303390;22;20013;-86
2023/10/08 07:01:05;;;;;;;9.18;1.80;;;;;;;23.27;26.15;99794.19;6301581;22;20018;-87
2023/10/08 07:03:33;;;;;;;7.90;2.22;;;;;;;23.55;25.62;99789.66;6301430;22;20065;-88
2023/10/08 07:06:02;;;;;;;4.20;1.52;;;;;;;23.19;25.97;99731.97;6304010;22;20007;-91
2023/10/08 07:08:32;;;;;;;5.40;1.92;;;;;;;23.32;25.55;99737.38;6302970;22;20011;-87
2023/10/08 07:11:01;;;;;;;20.65;3.40;;;;;;;23.41;25.13;99756.47;6303044;22;20034;-85
2023/10/08 07:13:29;;;;;;;6.50;1.40;;;;;;;23.44;25.49;99768.84;6303116;22;20003;-87
2023/10/08 07:15:56;;;;;;;4.60;2.15;;;;;;;23.44;25.56;99765.31;6304306;22;20011;-87
2023/10/08 07:18:24;;;;;;;5.72;2.25;;;;;;;23.90;25.69;99799.91;6328615;22;20007;-90
2023/10/08 07:20:55;;;;;;;7.75;2.05;;;;;;;23.64;24.54;99763.97;6304696;22;20006;-90
2023/10/08 07:23:29;;;;;;;15.02;2.60;;;;;;;23.77;24.13;99772.91;6302536;22;20133;-91
2023/10/08 07:25:59;;;;;;;13.63;2.88;;;;;;;24.26;25.23;99806.38;6302994;22;20011;-86
2023/10/08 07:28:26;;;;;;;6.13;2.50;;;;;;;24.24;24.17;99768.75;6304284;22;20031;-85
2023/10/08 07:30:52;;;;;;;7.65;2.25;;;;;;;23.88;24.79;99731.78;6304218;22;20003;-86
2023/10/08 07:33:18;;;;;;;9.63;2.80;;;;;;;24.01;24.16;99758.75;6304682;22;20003;-85
2023/10/08 07:35:56;;;;;;;6.20;2.60;;;;;;;24.02;24.04;99741.59;6304023;22;20007;-86
2023/10/08 07:38:27;;;;;;;6.28;2.22;;;;;;;24.08;23.92;99749.25;6303693;22;20010;-87
2023/10/08 07:40:55;;;;;;;6.85;2.42;;;;;;;24.25;23.95;99748.06;6304319;22;20006;-85
2023/10/08 07:43:21;;;;;;;8.70;2.55;;;;;;;24.75;23.36;99815.56;6304341;22;20008;-85
2023/10/08 07:45:47;;;;;;;3.20;1.83;;;;;;;24.22;23.06;99734.81;6304651;22;19999;-87
2023/10/08 07:48:15;;;;;;;9.68;2.13;;;;;;;24.55;23.49;99776.50;6305221;22;20442;-85
2023/10/08 07:50:45;;;;;;;5.45;1.70;;;;;;;24.54;22.74;99742.41;6305996;22;20029;-86
2023/10/08 07:53:17;;;;;;;18.15;2.60;;;;;;;24.89;23.23;99766.00;6305393;22;20082;-88
2023/10/08 07:55:47;;;;;;;5.35;2.05;;;;;;;25.07;22.58;99777.25;6306240;22;20007;-86
2023/10/08 07:58:17;;;;;;;10.00;4.00;;;;;;;24.83;22.65;99729.53;6305526;22;20461;-85
2023/10/08 08:00:51;;;;;;;5.47;2.10;;;;;;;24.92;22.68;99746.88;6305450;22;20215;-86
2023/10/08 08:03:20;;;;;;;4.38;2.30;;;;;;;25.17;22.38;99765.66;6305264;22;20026;-86
2023/10/08 08:05:47;;;;;;;8.20;3.58;;;;;;;24.81;22.28;99728.78;6305403;22;20007;-85
2023/10/08 08:08:17;;;;;;;6.32;1.65;;;;;;;24.68;22.67;99699.16;6305397;22;20312;-85
2023/10/08 08:10:44;;;;;;;8.70;1.45;;;;;;;24.96;23.27;99707.88;6306330;22;20053;-85
2023/10/08 08:13:10;;;;;;;5.00;2.80;;;;;;;25.01;22.79;99698.47;6305801;22;20025;-90
2023/10/08 08:15:41;;;;;;;4.07;1.63;;;;;;;25.24;22.74;99725.56;6305239;22;20006;-85
2023/10/08 08:18:07;;;;;;;10.52;2.67;;;;;;;25.32;22.48;99700.75;6305575;22;20003;-85
2023/10/08 08:20:38;;;;;;;13.93;1.70;;;;;;;25.10;22.47;99667.25;6304876;22;20334;-84
2023/10/08 08:23:08;;;;;;;5.97;1.98;;;;;;;25.32;22.34;99706.13;6305274;22;20411;-87
2023/10/08 08:26:06;;;;;;;7.32;2.28;;;;;;;25.26;22.45;99688.53;6305146;22;20121;-85
2023/10/08 08:28:35;;;;;;;9.27;2.20;;;;;;;25.26;22.23;99679.56;6305899;22;20425;-88
2023/10/08 08:31:13;;;;;;;2.78;1.25;;;;;;;25.33;22.05;99692.53;6306143;22;20327;-87
2023/10/08 08:34:02;;;;;;;3.40;1.50;;;;;;;25.33;22.58;99688.94;6305980;22;20089;-86
2023/10/08 08:36:29;;;;;;;8.48;3.40;;;;;;;25.62;22.38;99675.03;6306304;22;20016;-85
2023/10/08 08:38:55;;;;;;;6.95;2.38;;;;;;;25.85;22.17;99667.81;6305209;22;20474;-86
2023/10/08 08:41:22;;;;;;;6.68;1.90;;;;;;;25.89;22.41;99718.78;6305110;22;20004;-83
2023/10/08 08:43:59;;;;;;;6.40;2.42;;;;;;;25.80;23.16;99672.75;6304929;22;20057;-85
2023/10/08 08:46:31;;;;;;;4.00;2.45;;;;;;;26.35;22.12;99741.31;6305462;22;20003;-83
2023/10/08 08:49:01;;;;;;;10.43;3.45;;;;;;;26.25;22.19;99721.44;6304349;22;20015;-85
2023/10/08 08:51:29;;;;;;;7.10;3.92;;;;;;;26.26;22.00;99717.75;6304827;22;20413;-83
2023/10/08 08:53:55;;;;;;;6.57;3.15;;;;;;;26.35;22.08;99726.94;6304754;22;20003;-82
2023/10/08 08:56:22;;;;;;;6.75;2.42;;;;;;;26.48;22.11;99730.41;6304756;22;19999;-84
2023/10/08 08:58:49;;;;;;;8.07;3.40;;;;;;;26.52;22.30;99726.44;6304648;22;20004;-82
2023/10/08 09:01:17;;;;;;;7.32;2.83;;;;;;;26.44;21.60;99709.97;6303704;22;20009;-85
2023/10/08 09:03:43;;;;;;;11.73;2.85;;;;;;;26.45;22.16;99699.03;6303808;22;20003;-86
2023/10/08 09:06:09;;;;;;;14.65;2.15;;;;;;;26.43;21.99;99690.19;6303505;22;20026;-86
2023/10/08 09:08:36;;;;;;;14.45;3.08;;;;;;;26.51;22.24;99661.66;6302979;22;20014;-85
2023/10/08 09:11:04;;;;;;;13.02;4.10;;;;;;;26.54;21.48;99693.84;6303364;22;20430;-86
2023/10/08 09:13:31;;;;;;;6.20;2.78;;;;;;;26.38;21.63;99667.22;6303112;22;20346;-85
2023/10/08 09:16:17;;;;;;;12.63;4.55;;;;;;;26.77;21.80;99706.41;6303674;22;20015;-85
2023/10/08 09:18:48;;;;;;;96.95;32.30;;;;;;;27.04;22.42;99712.34;6302741;22;20014;-84
2023/10/08 09:21:18;;;;;;;31.88;15.38;;;;;;;26.96;22.22;99697.59;6302897;22;20003;-86
2023/10/08 09:23:48;;;;;;;113.63;65.00;;;;;;;26.97;22.41;99666.84;6301121;22;20061;-86
2023/10/08 09:26:18;;;;;;;153.98;82.70;;;;;;;27.03;22.51;99692.53;6301838;22;20014;-86
2023/10/08 09:28:48;;;;;;;17.35;6.00;;;;;;;26.93;22.47;99689.75;6304045;22;20007;-85
2023/10/08 09:31:14;;;;;;;12.95;3.20;;;;;;;26.82;22.13;99653.72;6305233;22;20035;-86
2023/10/08 09:33:53;;;;;;;9.93;3.72;;;;;;;26.89;22.06;99658.50;6308744;22;20346;-91
2023/10/08 09:36:20;;;;;;;75.15;29.00;;;;;;;26.69;22.24;99616.03;6303656;22;20080;-88
2023/10/08 09:38:49;;;;;;;294.77;105.63;;;;;;;26.81;22.59;99612.28;6280781;22;20335;-91
2023/10/08 09:41:18;;;;;;;137.93;74.90;;;;;;;27.20;21.66;99639.66;6304571;22;20049;-85
2023/10/08 09:43:51;;;;;;;13.95;5.47;;;;;;;27.39;21.76;99641.69;6305075;22;20036;-91
2023/10/08 09:46:20;;;;;;;110.88;55.80;;;;;;;27.36;22.28;99658.22;6304192;22;20090;-92
2023/10/08 09:48:54;;;;;;;33.67;19.95;;;;;;;27.18;21.69;99590.22;6302942;22;20080;-89
2023/10/08 09:51:20;;;;;;;731.72;239.27;;;;;;;27.32;23.96;99581.78;6303065;22;20594;-89
2023/10/08 09:54:15;;;;;;;139.25;99.35;;;;;;;27.51;21.66;99635.22;6304165;22;19999;-93
2023/10/08 09:56:44;;;;;;;24.33;10.98;;;;;;;27.27;21.72;99578.59;6307230;22;20446;-88
2023/10/08 09:59:10;;;;;;;14.43;5.93;;;;;;;27.32;21.74;99587.19;6306296;22;20369;-91
2023/10/08 10:01:41;;;;;;;3.08;1.73;;;;;;;27.48;21.64;99585.84;6303055;22;20022;-93
2023/10/08 10:04:23;;;;;;;3.75;1.40;;;;;;;27.49;22.02;99555.09;6304876;22;20007;-87
2023/10/08 10:06:50;;;;;;;6.10;1.77;;;;;;;27.62;21.82;99581.94;6302564;22;20501;-88
2023/10/08 10:09:24;;;;;;;6.20;1.92;;;;;;;27.90;21.74;99629.16;6335313;22;20007;-86
2023/10/08 10:11:59;;;;;;;6.82;1.65;;;;;;;27.75;22.30;99584.44;6303997;22;20287;-92
2023/10/08 10:14:25;;;;;;;3.75;1.63;;;;;;;27.83;22.40;99547.50;6327756;22;20143;-87
2023/10/08 10:17:20;;;;;;;7.50;2.00;;;;;;;28.04;22.30;99641.50;6303713;22;20010;-89
2023/10/08 10:20:13;;;;;;;5.47;2.25;;;;;;;28.20;23.18;99622.00;6303994;22;20003;-91
2023/10/08 10:22:42;;;;;;;6.75;2.15;;;;;;;28.01;22.58;99582.16;6296343;22;20023;-87
2023/10/08 10:25:17;;;;;;;4.07;1.90;;;;;;;27.88;22.24;99544.41;6305809;22;20481;-89
2023/10/08 10:28:06;;;;;;;;;;;;;;;28.25;22.61;99613.44;6307418;22;20089;-90
2023/10/08 10:30:32;;;;;;;9.50;2.30;;;;;;;28.16;22.34;99590.72;6307298;22;19906;-86
2023/10/08 10:33:01;;;;;;;13.35;2.00;;;;;;;28.26;22.43;99607.91;6304052;22;20059;-85
2023/10/08 10:35:27;;;;;;;3.05;1.40;;;;;;;27.98;22.61;99558.03;6304639;22;20010;-92
2023/10/08 10:38:03;;;;;;;5.88;1.70;;;;;;;27.84;22.48;99527.56;6302834;22;19999;-84
2023/10/08 10:40:41;;;;;;;3.75;1.30;;;;;;;27.83;22.33;99520.41;6303419;22;20037;-88
2023/10/08 10:43:09;;;;;;;4.63;1.80;;;;;;;27.95;22.76;99523.91;6303500;22;20007;-87
2023/10/08 10:45:36;;;;;;;9.88;1.98;;;;;;;28.20;21.87;99530.66;6303144;22;20029;-84
2023/10/08 10:48:12;;;;;;;4.78;1.95;;;;;;;28.43;22.25;99543.13;6304417;22;20003;-84
2023/10/08 10:50:48;;;;;;;8.77;1.63;;;;;;;28.14;21.86;99511.41;6303131;22;20007;-86
2023/10/08 10:53:18;;;;;;;5.28;1.42;;;;;;;28.04;22.20;99506.81;6304124;22;20003;-88
2023/10/08 10:55:58;;;;;;;5.10;1.65;;;;;;;28.07;22.22;99494.84;6303083;22;20014;-89
2023/10/08 10:58:39;;;;;;;9.43;1.70;;;;;;;28.17;22.58;99500.28;6303639;22;20008;-88
2023/10/08 11:01:23;;;;;;;8.70;1.48;;;;;;;28.64;22.40;99535.75;6304294;22;20003;-89
2023/10/08 11:03:51;;;;;;;5.55;2.25;;;;;;;28.56;22.67;99527.41;6303863;22;20007;-88
2023/10/08 11:06:22;;;;;;;4.97;2.40;;;;;;;28.42;22.67;99498.00;6303454;22;20006;-88
2023/10/08 11:08:58;;;;;;;14.73;1.75;;;;;;;28.43;22.59;99478.88;6303977;22;20003;-91
2023/10/08 11:11:28;;;;;;;3.40;1.13;;;;;;;28.65;22.60;99520.31;6302297;22;20003;-88
2023/10/08 11:14:00;;;;;;;11.15;1.25;;;;;;;28.31;22.57;99464.59;6304108;22;20007;-92
2023/10/08 11:16:26;;;;;;;4.50;1.80;;;;;;;28.34;22.50;99491.44;6303787;22;20000;-88
2023/10/08 11:18:57;;;;;;;7.18;1.77;;;;;;;28.39;23.03;99489.16;6304090;22;20014;-87
2023/10/08 11:21:24;;;;;;;2.45;1.40;;;;;;;28.29;23.06;99474.72;6304308;22;19999;-86
2023/10/08 11:24:08;;;;;;;3.40;1.33;;;;;;;28.56;23.00;99492.13;6306172;22;20018;-86
2023/10/08 11:26:54;;;;;;;8.05;1.98;;;;;;;28.46;23.00;99496.72;6304657;22;20007;-87
2023/10/08 11:29:25;;;;;;;4.57;1.45;;;;;;;28.57;22.80;99481.13;6305768;22;20003;-86
2023/10/08 11:31:53;;;;;;;6.47;1.92;;;;;;;28.54;23.09;99450.75;6305769;22;20003;-85
2023/10/08 11:34:23;;;;;;;8.85;1.55;;;;;;;28.65;22.75;99468.75;6306224;22;20011;-86
2023/10/08 11:36:53;;;;;;;14.60;2.78;;;;;;;28.68;23.24;99487.47;6304857;22;20029;-88
2023/10/08 11:39:21;;;;;;;6.57;1.92;;;;;;;28.93;22.83;99495.00;6306527;22;20040;-84
2023/10/08 11:42:06;;;;;;;1.83;1.40;;;;;;;28.98;22.71;99499.13;6306462;22;20081;-85
2023/10/08 11:44:35;;;;;;;5.68;2.33;;;;;;;29.01;23.09;99518.69;6329515;22;20014;-88
2023/10/08 11:47:11;;;;;;;5.57;2.15;;;;;;;28.61;23.29;99432.94;6306434;22;20007;-93
2023/10/08 11:49:37;;;;;;;12.70;2.15;;;;;;;28.86;22.71;99465.88;6305907;22;20007;-89
2023/10/08 11:52:04;;;;;;;5.10;1.63;;;;;;;29.12;23.03;99520.41;6306045;22;20411;-93
2023/10/08 11:54:32;;;;;;;10.02;1.77;;;;;;;28.69;23.30;99443.91;6303863;22;20433;-87
2023/10/08 11:57:02;;;;;;;9.68;2.17;;;;;;;28.88;22.92;99478.28;6305933;22;19999;-85
2023/10/08 11:59:29;;;;;;;3.28;1.58;;;;;;;28.79;22.87;99446.59;6305636;22;20339;-89
2023/10/08 12:01:56;;;;;;;17.40;1.85;;;;;;;28.96;23.16;99416.97;6304449;22;20011;-89
2023/10/08 12:04:22;;;;;;;8.15;1.38;;;;;;;28.93;22.97;99428.97;6306407;22;20078;-88
2023/10/08 12:06:52;;;;;;;10.00;1.83;;;;;;;28.95;23.07;99418.84;6305704;22;20065;-85
2023/10/08 12:09:21;;;;;;;3.60;1.33;;;;;;;29.15;23.03;99441.34;6305413;22;20375;-86
2023/10/08 12:11:47;;;;;;;5.07;2.05;;;;;;;29.06;23.04;99404.22;6305893;22;20346;-89
2023/10/08 12:14:14;;;;;;;5.30;2.50;;;;;;;29.31;22.44;99503.22;6305809;22;20008;-90
2023/10/08 12:16:41;;;;;;;3.00;1.25;;;;;;;28.90;22.49;99394.88;6305868;22;20011;-88
2023/10/08 12:19:16;;;;;;;5.93;1.67;;;;;;;29.17;22.97;99414.06;6305806;22;20345;-87
2023/10/08 12:21:42;;;;;;;5.53;2.38;;;;;;;29.25;22.74;99409.59;6305654;22;20342;-88
2023/10/08 12:24:12;;;;;;;5.90;1.20;;;;;;;29.23;22.71;99411.63;6306188;22;20114;-88
2023/10/08 12:26:42;;;;;;;3.83;1.58;;;;;;;29.34;23.09;99445.03;6304013;22;20010;-86
2023/10/08 12:29:08;;;;;;;7.50;1.63;;;;;;;29.47;23.00;99437.38;6306535;22;20457;-85
2023/10/08 12:31:47;;;;;;;3.65;1.58;;;;;;;29.32;23.23;99395.41;6306200;22;20006;-89
2023/10/08 12:34:16;;;;;;;4.82;1.52;;;;;;;29.32;22.40;99433.44;6304986;22;19999;-85
2023/10/08 12:36:42;;;;;;;3.55;1.10;;;;;;;28.95;22.63;99402.56;6306096;22;20003;-86
2023/10/08 12:39:14;;;;;;;10.88;1.52;;;;;;;29.04;22.86;99406.22;6305578;22;20011;-82
2023/10/08 12:41:44;;;;;;;12.18;2.22;;;;;;;28.81;22.82;99387.59;6305471;22;20060;-85
2023/10/08 12:44:11;;;;;;;3.92;2.03;;;;;;;29.18;22.88;99437.47;6305180;22;20007;-84
2023/10/08 12:46:37;;;;;;;3.50;1.60;;;;;;;29.02;22.74;99381.94;6304816;22;19999;-84
2023/10/08 12:49:02;;;;;;;3.00;1.05;;;;;;;28.96;22.38;99387.97;6305275;22;20010;-83
2023/10/08 12:51:32;;;;;;;4.50;1.77;;;;;;;29.16;22.89;99439.47;6305203;22;20003;-84
2023/10/08 12:54:03;;;;;;;4.45;2.30;;;;;;;29.03;22.61;99378.22;6303443;22;20007;-85
2023/10/08 12:56:35;;;;;;;4.68;1.73;;;;;;;29.17;22.41;99408.63;6305168;22;20457;-82
2023/10/08 12:59:05;;;;;;;2.92;1.60;;;;;;;29.25;22.54;99404.16;6304640;22;20003;-86
2023/10/08 13:01:31;;;;;;;5.22;1.90;;;;;;;29.24;21.70;99402.47;6302441;22;20334;-85